sensor_id;sensor_type;location;lat;lon;timestamp;temperature;humidity
10968;DHT22;5536;49.602;10.980;2023-06-14T00:02:20;16.20;99.90
10968;DHT22;5536;49.602;10.980;2023-06-14T00:04:49;16.30;99.90
10968;DHT22;5536;49.602;10.980;2023-06-14T00:07:18;16.50;99.90
10968;DHT22;5536;49.602;10.980;2023-06-14T00:09:45;16.20;99.90
10968;DHT22;5536;49.602;10.980;2023-06-14T00:12:12;16.20;99.90
10968;DHT22;5536;49.602;10.980;2023-06-14T00:14:39;16.10;99.90
10968;DHT22;5536;49.602;10.980;2023-06-14T00:17:06;16.00;99.90
10968;DHT22;5536;49.602;10.980;2023-06-14T00:19:34;16.00;99.90
10968;DHT22;5536;49.602;10.980;2023-06-14T00:22:04;15.90;99.90
10968;DHT22;5536;49.602;10.980;2023-06-14T00:24:31;15.80;99.90
10968;DHT22;5536;49.602;10.980;2023-06-14T00:26:58;15.80;99.90
10968;DHT22;5536;49.602;10.980;2023-06-14T00:29:25;15.70;99.90
10968;DHT22;5536;49.602;10.980;2023-06-14T00:31:52;15.60;99.90
10968;DHT22;5536;49.602;10.980;2023-06-14T00:34:19;15.60;99.90
10968;DHT22;5536;49.602;10.980;2023-06-14T00:36:46;15.60;99.90
10968;DHT22;5536;49.602;10.980;2023-06-14T00:39:15;15.50;99.90
10968;DHT22;5536;49.602;10.980;2023-06-14T00:41:42;15.40;99.90
10968;DHT22;5536;49.602;10.980;2023-06-14T00:44:09;15.40;99.90
10968;DHT22;5536;49.602;10.980;2023-06-14T00:46:36;15.30;99.90
10968;DHT22;5536;49.602;10.980;2023-06-14T00:49:03;15.30;99.90
10968;DHT22;5536;49.602;10.980;2023-06-14T00:51:31;15.20;99.90
10968;DHT22;5536;49.602;10.980;2023-06-14T00:53:59;15.20;99.90
10968;DHT22;5536;49.602;10.980;2023-06-14T00:56:28;15.20;99.90
10968;DHT22;5536;49.602;10.980;2023-06-14T00:58:55;15.10;99.90
10968;DHT22;5536;49.602;10.980;2023-06-14T01:01:22;15.00;99.90
10968;DHT22;5536;49.602;10.980;2023-06-14T01:03:50;14.90;99.90
10968;DHT22;5536;49.602;10.980;2023-06-14T01:06:22;14.90;99.90
10968;DHT22;5536;49.602;10.980;2023-06-14T01:09:03;14.90;99.90
10968;DHT22;5536;49.602;10.980;2023-06-14T01:11:40;14.80;99.90
10968;DHT22;5536;49.602;10.980;2023-06-14T01:14:12;14.80;99.90
10968;DHT22;5536;49.602;10.980;2023-06-14T01:16:40;14.80;99.90
10968;DHT22;5536;49.602;10.980;2023-06-14T01:19:10;14.70;99.90
10968;DHT22;5536;49.602;10.980;2023-06-14T01:21:39;14.70;99.90
10968;DHT22;5536;49.602;10.980;2023-06-14T01:24:09;14.60;99.90
10968;DHT22;5536;49.602;10.980;2023-06-14T01:26:36;14.60;99.90
10968;DHT22;5536;49.602;10.980;2023-06-14T01:29:05;14.60;99.90
10968;DHT22;5536;49.602;10.980;2023-06-14T01:31:34;14.60;99.90
10968;DHT22;5536;49.602;10.980;2023-06-14T01:34:07;14.60;99.90
10968;DHT22;5536;49.602;10.980;2023-06-14T01:36:36;14.70;99.90
10968;DHT22;5536;49.602;10.980;2023-06-14T01:39:05;14.70;99.90
10968;DHT22;5536;49.602;10.980;2023-06-14T01:41:35;14.70;99.90
10968;DHT22;5536;49.602;10.980;2023-06-14T01:44:03;14.90;99.90
10968;DHT22;5536;49.602;10.980;2023-06-14T01:46:30;14.90;99.90
10968;DHT22;5536;49.602;10.980;2023-06-14T01:48:57;14.90;99.90
10968;DHT22;5536;49.602;10.980;2023-06-14T01:51:24;15.00;99.90
10968;DHT22;5536;49.602;10.980;2023-06-14T01:53:51;15.10;99.90
10968;DHT22;5536;49.602;10.980;2023-06-14T01:56:18;15.10;99.90
10968;DHT22;5536;49.602;10.980;2023-06-14T01:58:47;15.10;99.90
10968;DHT22;5536;49.602;10.980;2023-06-14T02:01:14;15.10;99.90
10968;DHT22;5536;49.602;10.980;2023-06-14T02:03:42;15.20;99.90
10968;DHT22;5536;49.602;10.980;2023-06-14T02:06:10;15.20;99.90
10968;DHT22;5536;49.602;10.980;2023-06-14T02:08:38;15.20;99.90
10968;DHT22;5536;49.602;10.980;2023-06-14T02:11:05;14.90;99.90
10968;DHT22;5536;49.602;10.980;2023-06-14T02:13:32;14.70;99.90
10968;DHT22;5536;49.602;10.980;2023-06-14T02:16:01;14.80;99.90
10968;DHT22;5536;49.602;10.980;2023-06-14T02:18:29;15.00;99.90
10968;DHT22;5536;49.602;10.980;2023-06-14T02:20:56;14.90;99.90
10968;DHT22;5536;49.602;10.980;2023-06-14T02:23:23;14.90;99.90
10968;DHT22;5536;49.602;10.980;2023-06-14T02:25:51;14.80;99.90
10968;DHT22;5536;49.602;10.980;2023-06-14T02:28:18;14.70;99.90
10968;DHT22;5536;49.602;10.980;2023-06-14T02:30:45;14.90;99.90
10968;DHT22;5536;49.602;10.980;2023-06-14T02:33:13;14.60;99.90
10968;DHT22;5536;49.602;10.980;2023-06-14T02:35:40;14.50;99.90
10968;DHT22;5536;49.602;10.980;2023-06-14T02:38:07;14.50;99.90
10968;DHT22;5536;49.602;10.980;2023-06-14T02:40:34;14.60;99.90
10968;DHT22;5536;49.602;10.980;2023-06-14T02:43:01;14.50;99.90
10968;DHT22;5536;49.602;10.980;2023-06-14T02:45:28;14.50;99.90
10968;DHT22;5536;49.602;10.980;2023-06-14T02:47:55;14.40;99.90
10968;DHT22;5536;49.602;10.980;2023-06-14T02:50:24;14.20;99.90
10968;DHT22;5536;49.602;10.980;2023-06-14T02:52:51;13.80;99.90
10968;DHT22;5536;49.602;10.980;2023-06-14T02:55:21;13.50;99.90
10968;DHT22;5536;49.602;10.980;2023-06-14T02:57:48;13.50;99.90
10968;DHT22;5536;49.602;10.980;2023-06-14T03:00:16;13.60;99.90
10968;DHT22;5536;49.602;10.980;2023-06-14T03:02:43;13.40;99.90
10968;DHT22;5536;49.602;10.980;2023-06-14T03:05:11;13.40;99.90
10968;DHT22;5536;49.602;10.980;2023-06-14T03:07:40;13.50;99.90
10968;DHT22;5536;49.602;10.980;2023-06-14T03:10:10;13.40;99.90
10968;DHT22;5536;49.602;10.980;2023-06-14T03:12:38;13.30;99.90
10968;DHT22;5536;49.602;10.980;2023-06-14T03:15:06;13.30;99.90
10968;DHT22;5536;49.602;10.980;2023-06-14T03:17:34;13.20;99.90
10968;DHT22;5536;49.602;10.980;2023-06-14T03:20:05;13.20;99.90
10968;DHT22;5536;49.602;10.980;2023-06-14T03:22:34;13.10;99.90
10968;DHT22;5536;49.602;10.980;2023-06-14T03:25:02;13.10;99.90
10968;DHT22;5536;49.602;10.980;2023-06-14T03:27:30;13.10;99.90
10968;DHT22;5536;49.602;10.980;2023-06-14T03:29:57;13.10;99.90
10968;DHT22;5536;49.602;10.980;2023-06-14T03:32:25;13.10;99.90
10968;DHT22;5536;49.602;10.980;2023-06-14T03:34:52;13.10;99.90
10968;DHT22;5536;49.602;10.980;2023-06-14T03:37:19;13.20;99.90
10968;DHT22;5536;49.602;10.980;2023-06-14T03:39:46;13.20;99.90
10968;DHT22;5536;49.602;10.980;2023-06-14T03:42:15;13.20;99.90
10968;DHT22;5536;49.602;10.980;2023-06-14T03:44:42;13.20;99.90
10968;DHT22;5536;49.602;10.980;2023-06-14T03:47:10;13.10;99.90
10968;DHT22;5536;49.602;10.980;2023-06-14T03:49:37;13.20;99.90
10968;DHT22;5536;49.602;10.980;2023-06-14T03:52:04;13.20;99.90
10968;DHT22;5536;49.602;10.980;2023-06-14T03:54:32;13.20;99.90
10968;DHT22;5536;49.602;10.980;2023-06-14T03:56:59;13.20;99.90
10968;DHT22;5536;49.602;10.980;2023-06-14T03:59:28;13.20;99.90
10968;DHT22;5536;49.602;10.980;2023-06-14T04:01:55;13.20;99.90
10968;DHT22;5536;49.602;10.980;2023-06-14T04:04:22;13.20;99.90
10968;DHT22;5536;49.602;10.980;2023-06-14T04:06:55;13.20;99.90
10968;DHT22;5536;49.602;10.980;2023-06-14T04:09:24;13.30;99.90
10968;DHT22;5536;49.602;10.980;2023-06-14T04:11:51;13.20;99.90
10968;DHT22;5536;49.602;10.980;2023-06-14T04:14:19;13.30;99.90
10968;DHT22;5536;49.602;10.980;2023-06-14T04:16:48;13.20;99.90
10968;DHT22;5536;49.602;10.980;2023-06-14T04:19:16;13.20;99.90
10968;DHT22;5536;49.602;10.980;2023-06-14T04:21:43;13.20;99.90
10968;DHT22;5536;49.602;10.980;2023-06-14T04:24:10;13.20;99.90
10968;DHT22;5536;49.602;10.980;2023-06-14T04:26:39;13.20;99.90
10968;DHT22;5536;49.602;10.980;2023-06-14T04:29:06;13.10;99.90
10968;DHT22;5536;49.602;10.980;2023-06-14T04:31:34;13.20;99.90
10968;DHT22;5536;49.602;10.980;2023-06-14T04:34:06;13.20;99.90
10968;DHT22;5536;49.602;10.980;2023-06-14T04:36:33;13.30;99.90
10968;DHT22;5536;49.602;10.980;2023-06-14T04:39:02;13.50;99.90
10968;DHT22;5536;49.602;10.980;2023-06-14T04:41:30;13.50;99.90
10968;DHT22;5536;49.602;10.980;2023-06-14T04:43:57;13.60;99.90
10968;DHT22;5536;49.602;10.980;2023-06-14T04:46:27;13.70;99.90
10968;DHT22;5536;49.602;10.980;2023-06-14T04:48:54;13.70;99.90
10968;DHT22;5536;49.602;10.980;2023-06-14T04:51:23;13.80;99.90
10968;DHT22;5536;49.602;10.980;2023-06-14T04:53:55;14.00;99.90
10968;DHT22;5536;49.602;10.980;2023-06-14T04:56:24;14.00;99.90
10968;DHT22;5536;49.602;10.980;2023-06-14T04:58:52;14.20;99.90
10968;DHT22;5536;49.602;10.980;2023-06-14T05:01:22;14.20;99.90
10968;DHT22;5536;49.602;10.980;2023-06-14T05:03:50;14.40;99.90
10968;DHT22;5536;49.602;10.980;2023-06-14T05:06:17;14.40;99.90
10968;DHT22;5536;49.602;10.980;2023-06-14T05:08:46;14.50;99.90
10968;DHT22;5536;49.602;10.980;2023-06-14T05:11:14;14.60;99.90
10968;DHT22;5536;49.602;10.980;2023-06-14T05:13:42;14.80;99.90
10968;DHT22;5536;49.602;10.980;2023-06-14T05:16:10;14.90;99.90
10968;DHT22;5536;49.602;10.980;2023-06-14T05:18:38;14.90;99.90
10968;DHT22;5536;49.602;10.980;2023-06-14T05:21:06;14.90;99.90
10968;DHT22;5536;49.602;10.980;2023-06-14T05:23:33;15.00;99.90
10968;DHT22;5536;49.602;10.980;2023-06-14T05:26:02;15.00;99.90
10968;DHT22;5536;49.602;10.980;2023-06-14T05:28:30;15.10;99.90
10968;DHT22;5536;49.602;10.980;2023-06-14T05:30:57;15.30;99.90
10968;DHT22;5536;49.602;10.980;2023-06-14T05:33:25;15.40;99.90
10968;DHT22;5536;49.602;10.980;2023-06-14T05:35:52;15.50;99.90
10968;DHT22;5536;49.602;10.980;2023-06-14T05:38:19;15.60;99.90
10968;DHT22;5536;49.602;10.980;2023-06-14T05:40:46;15.80;99.90
10968;DHT22;5536;49.602;10.980;2023-06-14T05:43:15;15.90;99.90
10968;DHT22;5536;49.602;10.980;2023-06-14T05:45:42;16.00;99.90
10968;DHT22;5536;49.602;10.980;2023-06-14T05:48:09;16.00;99.90
10968;DHT22;5536;49.602;10.980;2023-06-14T05:50:36;16.10;99.90
10968;DHT22;5536;49.602;10.980;2023-06-14T05:53:03;16.20;99.90
10968;DHT22;5536;49.602;10.980;2023-06-14T05:55:30;16.30;99.90
10968;DHT22;5536;49.602;10.980;2023-06-14T05:57:57;16.30;99.90
10968;DHT22;5536;49.602;10.980;2023-06-14T06:00:26;16.40;99.90
10968;DHT22;5536;49.602;10.980;2023-06-14T06:02:53;16.30;99.90
10968;DHT22;5536;49.602;10.980;2023-06-14T06:05:22;16.30;99.90
10968;DHT22;5536;49.602;10.980;2023-06-14T06:07:49;16.30;99.90
10968;DHT22;5536;49.602;10.980;2023-06-14T06:10:16;16.30;99.90
10968;DHT22;5536;49.602;10.980;2023-06-14T06:12:43;16.40;99.90
10968;DHT22;5536;49.602;10.980;2023-06-14T06:15:13;16.30;99.90
10968;DHT22;5536;49.602;10.980;2023-06-14T06:17:41;16.30;99.90
10968;DHT22;5536;49.602;10.980;2023-06-14T06:20:09;16.50;99.90
10968;DHT22;5536;49.602;10.980;2023-06-14T06:22:37;16.60;99.90
10968;DHT22;5536;49.602;10.980;2023-06-14T06:25:05;16.60;99.90
10968;DHT22;5536;49.602;10.980;2023-06-14T06:27:33;16.70;99.90
10968;DHT22;5536;49.602;10.980;2023-06-14T06:30:01;16.70;99.90
10968;DHT22;5536;49.602;10.980;2023-06-14T06:32:29;16.70;99.90
10968;DHT22;5536;49.602;10.980;2023-06-14T06:34:57;16.80;99.90
10968;DHT22;5536;49.602;10.980;2023-06-14T06:37:26;16.80;99.90
10968;DHT22;5536;49.602;10.980;2023-06-14T06:39:53;16.90;99.90
10968;DHT22;5536;49.602;10.980;2023-06-14T06:42:20;17.10;99.90
10968;DHT22;5536;49.602;10.980;2023-06-14T06:44:47;17.20;99.90
10968;DHT22;5536;49.602;10.980;2023-06-14T06:47:14;17.20;99.90
10968;DHT22;5536;49.602;10.980;2023-06-14T06:49:41;17.20;99.90
10968;DHT22;5536;49.602;10.980;2023-06-14T06:52:09;17.20;99.90
10968;DHT22;5536;49.602;10.980;2023-06-14T06:54:36;17.20;99.90
10968;DHT22;5536;49.602;10.980;2023-06-14T06:57:03;17.30;99.90
10968;DHT22;5536;49.602;10.980;2023-06-14T06:59:31;17.20;99.90
10968;DHT22;5536;49.602;10.980;2023-06-14T07:01:58;17.20;99.90
10968;DHT22;5536;49.602;10.980;2023-06-14T07:04:25;17.30;99.90
10968;DHT22;5536;49.602;10.980;2023-06-14T07:06:52;17.40;99.90
10968;DHT22;5536;49.602;10.980;2023-06-14T07:09:21;17.30;99.90
10968;DHT22;5536;49.602;10.980;2023-06-14T07:11:49;17.20;99.90
10968;DHT22;5536;49.602;10.980;2023-06-14T07:14:16;17.30;99.90
10968;DHT22;5536;49.602;10.980;2023-06-14T07:16:43;17.30;99.90
10968;DHT22;5536;49.602;10.980;2023-06-14T07:19:12;17.50;99.90
10968;DHT22;5536;49.602;10.980;2023-06-14T07:21:39;17.70;99.90
10968;DHT22;5536;49.602;10.980;2023-06-14T07:24:06;17.70;99.90
10968;DHT22;5536;49.602;10.980;2023-06-14T07:26:35;17.80;99.90
10968;DHT22;5536;49.602;10.980;2023-06-14T07:29:02;17.90;99.90
10968;DHT22;5536;49.602;10.980;2023-06-14T07:31:29;18.10;99.90
10968;DHT22;5536;49.602;10.980;2023-06-14T07:33:57;18.30;99.90
10968;DHT22;5536;49.602;10.980;2023-06-14T07:36:24;18.40;99.90
10968;DHT22;5536;49.602;10.980;2023-06-14T07:38:51;18.50;99.90
10968;DHT22;5536;49.602;10.980;2023-06-14T07:41:18;18.60;99.90
10968;DHT22;5536;49.602;10.980;2023-06-14T07:43:46;18.80;99.90
10968;DHT22;5536;49.602;10.980;2023-06-14T07:46:15;18.90;99.90
10968;DHT22;5536;49.602;10.980;2023-06-14T07:48:42;19.10;99.90
10968;DHT22;5536;49.602;10.980;2023-06-14T07:51:09;19.10;99.90
10968;DHT22;5536;49.602;10.980;2023-06-14T07:53:36;19.10;99.90
10968;DHT22;5536;49.602;10.980;2023-06-14T07:56:03;19.10;99.90
10968;DHT22;5536;49.602;10.980;2023-06-14T07:58:30;19.20;99.90
10968;DHT22;5536;49.602;10.980;2023-06-14T08:00:58;19.20;99.90
10968;DHT22;5536;49.602;10.980;2023-06-14T08:03:29;19.30;99.90
10968;DHT22;5536;49.602;10.980;2023-06-14T08:05:56;19.40;99.90
10968;DHT22;5536;49.602;10.980;2023-06-14T08:08:23;19.50;99.90
10968;DHT22;5536;49.602;10.980;2023-06-14T08:10:50;19.50;99.90
10968;DHT22;5536;49.602;10.980;2023-06-14T08:13:17;19.60;99.90
10968;DHT22;5536;49.602;10.980;2023-06-14T08:15:44;19.70;99.90
10968;DHT22;5536;49.602;10.980;2023-06-14T08:18:12;19.70;99.90
10968;DHT22;5536;49.602;10.980;2023-06-14T08:20:39;19.80;99.90
10968;DHT22;5536;49.602;10.980;2023-06-14T08:23:07;19.90;99.90
10968;DHT22;5536;49.602;10.980;2023-06-14T08:25:34;20.00;99.90
10968;DHT22;5536;49.602;10.980;2023-06-14T08:28:01;20.00;99.90
10968;DHT22;5536;49.602;10.980;2023-06-14T08:30:28;20.20;99.90
10968;DHT22;5536;49.602;10.980;2023-06-14T08:32:55;20.20;99.90
10968;DHT22;5536;49.602;10.980;2023-06-14T08:35:24;20.20;99.90
10968;DHT22;5536;49.602;10.980;2023-06-14T08:37:51;20.20;99.90
10968;DHT22;5536;49.602;10.980;2023-06-14T08:40:20;20.30;99.90
10968;DHT22;5536;49.602;10.980;2023-06-14T08:42:50;20.40;99.90
10968;DHT22;5536;49.602;10.980;2023-06-14T08:45:18;20.10;99.90
10968;DHT22;5536;49.602;10.980;2023-06-14T08:47:46;20.10;99.90
10968;DHT22;5536;49.602;10.980;2023-06-14T08:50:20;20.20;99.90
10968;DHT22;5536;49.602;10.980;2023-06-14T08:52:54;20.50;99.90
10968;DHT22;5536;49.602;10.980;2023-06-14T08:55:23;20.50;99.90
10968;DHT22;5536;49.602;10.980;2023-06-14T08:57:54;20.50;99.90
10968;DHT22;5536;49.602;10.980;2023-06-14T09:00:22;20.60;99.90
10968;DHT22;5536;49.602;10.980;2023-06-14T09:02:50;20.90;99.90
10968;DHT22;5536;49.602;10.980;2023-06-14T09:05:22;21.00;99.90
10968;DHT22;5536;49.602;10.980;2023-06-14T09:07:50;21.10;99.90
10968;DHT22;5536;49.602;10.980;2023-06-14T09:10:18;21.40;99.90
10968;DHT22;5536;49.602;10.980;2023-06-14T09:12:45;21.60;99.90
10968;DHT22;5536;49.602;10.980;2023-06-14T09:15:12;21.60;99.90
10968;DHT22;5536;49.602;10.980;2023-06-14T09:17:40;21.50;99.90
10968;DHT22;5536;49.602;10.980;2023-06-14T09:20:09;21.40;99.90
10968;DHT22;5536;49.602;10.980;2023-06-14T09:22:39;21.50;99.90
10968;DHT22;5536;49.602;10.980;2023-06-14T09:25:09;21.50;99.90
10968;DHT22;5536;49.602;10.980;2023-06-14T09:27:37;21.40;99.90
10968;DHT22;5536;49.602;10.980;2023-06-14T09:30:10;21.20;99.90
10968;DHT22;5536;49.602;10.980;2023-06-14T09:32:37;21.10;99.90
10968;DHT22;5536;49.602;10.980;2023-06-14T09:35:06;21.00;99.90
10968;DHT22;5536;49.602;10.980;2023-06-14T09:37:33;21.10;99.90
10968;DHT22;5536;49.602;10.980;2023-06-14T09:40:01;21.30;99.90
10968;DHT22;5536;49.602;10.980;2023-06-14T09:42:31;21.50;99.90
10968;DHT22;5536;49.602;10.980;2023-06-14T09:45:02;21.80;99.90
10968;DHT22;5536;49.602;10.980;2023-06-14T09:47:30;22.00;99.90
10968;DHT22;5536;49.602;10.980;2023-06-14T09:49:57;22.60;99.90
10968;DHT22;5536;49.602;10.980;2023-06-14T09:52:26;22.90;99.90
10968;DHT22;5536;49.602;10.980;2023-06-14T09:54:55;22.70;99.90
10968;DHT22;5536;49.602;10.980;2023-06-14T09:57:23;22.40;99.90
10968;DHT22;5536;49.602;10.980;2023-06-14T09:59:57;22.70;99.90
10968;DHT22;5536;49.602;10.980;2023-06-14T10:02:28;22.70;99.90
10968;DHT22;5536;49.602;10.980;2023-06-14T10:05:02;23.20;99.90
10968;DHT22;5536;49.602;10.980;2023-06-14T10:07:34;23.50;99.90
10968;DHT22;5536;49.602;10.980;2023-06-14T10:10:02;23.40;99.90
10968;DHT22;5536;49.602;10.980;2023-06-14T10:12:30;23.60;99.90
10968;DHT22;5536;49.602;10.980;2023-06-14T10:14:59;23.90;99.90
10968;DHT22;5536;49.602;10.980;2023-06-14T10:17:41;23.70;99.90
10968;DHT22;5536;49.602;10.980;2023-06-14T10:20:19;24.10;99.90
10968;DHT22;5536;49.602;10.980;2023-06-14T10:22:51;24.60;99.90
10968;DHT22;5536;49.602;10.980;2023-06-14T10:25:28;24.80;99.90
10968;DHT22;5536;49.602;10.980;2023-06-14T10:28:14;24.70;99.90
10968;DHT22;5536;49.602;10.980;2023-06-14T10:31:05;24.30;99.90
10968;DHT22;5536;49.602;10.980;2023-06-14T10:33:33;23.70;99.90
10968;DHT22;5536;49.602;10.980;2023-06-14T10:36:09;23.40;99.90
10968;DHT22;5536;49.602;10.980;2023-06-14T10:38:37;23.30;99.90
10968;DHT22;5536;49.602;10.980;2023-06-14T10:41:05;23.10;99.90
10968;DHT22;5536;49.602;10.980;2023-06-14T10:43:33;23.00;99.90
10968;DHT22;5536;49.602;10.980;2023-06-14T10:46:18;22.90;99.90
10968;DHT22;5536;49.602;10.980;2023-06-14T10:48:48;23.10;99.90
10968;DHT22;5536;49.602;10.980;2023-06-14T10:51:19;23.30;99.90
10968;DHT22;5536;49.602;10.980;2023-06-14T10:53:48;24.30;99.90
10968;DHT22;5536;49.602;10.980;2023-06-14T10:56:27;24.80;99.90
10968;DHT22;5536;49.602;10.980;2023-06-14T10:58:55;24.80;99.90
10968;DHT22;5536;49.602;10.980;2023-06-14T11:01:32;24.60;99.90
10968;DHT22;5536;49.602;10.980;2023-06-14T11:04:09;24.20;99.90
10968;DHT22;5536;49.602;10.980;2023-06-14T11:06:47;24.30;99.90
10968;DHT22;5536;49.602;10.980;2023-06-14T11:12:23;24.10;99.90
10968;DHT22;5536;49.602;10.980;2023-06-14T11:14:52;24.20;99.90
10968;DHT22;5536;49.602;10.980;2023-06-14T11:17:20;24.10;99.90
10968;DHT22;5536;49.602;10.980;2023-06-14T11:19:47;23.80;99.90
10968;DHT22;5536;49.602;10.980;2023-06-14T11:22:14;23.80;99.90
10968;DHT22;5536;49.602;10.980;2023-06-14T11:24:43;23.70;99.90
10968;DHT22;5536;49.602;10.980;2023-06-14T11:27:10;23.70;99.90
10968;DHT22;5536;49.602;10.980;2023-06-14T11:29:38;23.60;99.90
10968;DHT22;5536;49.602;10.980;2023-06-14T11:32:07;23.50;99.90
10968;DHT22;5536;49.602;10.980;2023-06-14T11:34:39;23.60;99.90
10968;DHT22;5536;49.602;10.980;2023-06-14T11:37:06;23.90;99.90
10968;DHT22;5536;49.602;10.980;2023-06-14T11:39:34;24.50;99.90
10968;DHT22;5536;49.602;10.980;2023-06-14T11:42:01;24.90;99.90
10968;DHT22;5536;49.602;10.980;2023-06-14T11:44:29;26.40;99.90
10968;DHT22;5536;49.602;10.980;2023-06-14T11:46:56;27.50;99.90
10968;DHT22;5536;49.602;10.980;2023-06-14T11:49:23;28.10;99.90
10968;DHT22;5536;49.602;10.980;2023-06-14T11:51:54;27.60;99.90
10968;DHT22;5536;49.602;10.980;2023-06-14T11:54:21;26.70;99.90
10968;DHT22;5536;49.602;10.980;2023-06-14T11:56:48;26.00;99.90
10968;DHT22;5536;49.602;10.980;2023-06-14T11:59:16;25.60;99.90
10968;DHT22;5536;49.602;10.980;2023-06-14T12:01:43;25.00;99.90
10968;DHT22;5536;49.602;10.980;2023-06-14T12:04:11;24.80;99.90
10968;DHT22;5536;49.602;10.980;2023-06-14T12:06:38;24.80;99.90
10968;DHT22;5536;49.602;10.980;2023-06-14T12:09:07;24.90;99.90
10968;DHT22;5536;49.602;10.980;2023-06-14T12:11:38;25.50;99.90
10968;DHT22;5536;49.602;10.980;2023-06-14T12:14:06;26.40;99.90
10968;DHT22;5536;49.602;10.980;2023-06-14T12:16:34;27.00;99.90
10968;DHT22;5536;49.602;10.980;2023-06-14T12:19:07;28.40;99.90
10968;DHT22;5536;49.602;10.980;2023-06-14T12:21:37;29.30;99.90
10968;DHT22;5536;49.602;10.980;2023-06-14T12:24:07;29.40;99.90
10968;DHT22;5536;49.602;10.980;2023-06-14T12:26:38;28.20;99.90
10968;DHT22;5536;49.602;10.980;2023-06-14T12:29:05;29.00;99.90
10968;DHT22;5536;49.602;10.980;2023-06-14T12:31:32;28.70;99.90
10968;DHT22;5536;49.602;10.980;2023-06-14T12:33:59;28.50;99.90
10968;DHT22;5536;49.602;10.980;2023-06-14T12:36:26;28.10;99.90
10968;DHT22;5536;49.602;10.980;2023-06-14T12:38:54;28.00;99.90
10968;DHT22;5536;49.602;10.980;2023-06-14T12:41:22;29.00;99.90
10968;DHT22;5536;49.602;10.980;2023-06-14T12:43:50;29.00;99.90
10968;DHT22;5536;49.602;10.980;2023-06-14T12:46:17;28.90;99.90
10968;DHT22;5536;49.602;10.980;2023-06-14T12:48:44;29.00;99.90
10968;DHT22;5536;49.602;10.980;2023-06-14T12:51:11;29.80;99.90
10968;DHT22;5536;49.602;10.980;2023-06-14T12:53:38;30.00;99.90
10968;DHT22;5536;49.602;10.980;2023-06-14T12:56:05;30.50;99.90
10968;DHT22;5536;49.602;10.980;2023-06-14T12:58:33;30.60;99.90
10968;DHT22;5536;49.602;10.980;2023-06-14T13:01:00;30.40;99.90
10968;DHT22;5536;49.602;10.980;2023-06-14T13:03:27;28.40;99.90
10968;DHT22;5536;49.602;10.980;2023-06-14T13:05:54;27.30;99.90
10968;DHT22;5536;49.602;10.980;2023-06-14T13:08:21;26.30;99.90
10968;DHT22;5536;49.602;10.980;2023-06-14T13:10:49;25.90;99.90
10968;DHT22;5536;49.602;10.980;2023-06-14T13:13:16;25.30;99.90
10968;DHT22;5536;49.602;10.980;2023-06-14T13:15:44;25.10;99.90
10968;DHT22;5536;49.602;10.980;2023-06-14T13:18:11;25.20;99.90
10968;DHT22;5536;49.602;10.980;2023-06-14T13:20:39;25.10;99.90
10968;DHT22;5536;49.602;10.980;2023-06-14T13:23:06;25.20;99.90
10968;DHT22;5536;49.602;10.980;2023-06-14T13:25:34;25.40;99.90
10968;DHT22;5536;49.602;10.980;2023-06-14T13:28:01;25.20;99.90
10968;DHT22;5536;49.602;10.980;2023-06-14T13:30:28;26.70;99.90
10968;DHT22;5536;49.602;10.980;2023-06-14T13:32:57;27.60;99.90
10968;DHT22;5536;49.602;10.980;2023-06-14T13:35:24;28.00;99.90
10968;DHT22;5536;49.602;10.980;2023-06-14T13:37:51;28.90;99.90
10968;DHT22;5536;49.602;10.980;2023-06-14T13:40:18;29.30;99.90
10968;DHT22;5536;49.602;10.980;2023-06-14T13:42:46;30.00;99.90
10968;DHT22;5536;49.602;10.980;2023-06-14T13:45:15;29.60;99.90
10968;DHT22;5536;49.602;10.980;2023-06-14T13:47:42;29.80;99.90
10968;DHT22;5536;49.602;10.980;2023-06-14T13:50:11;30.50;99.90
10968;DHT22;5536;49.602;10.980;2023-06-14T13:52:38;30.40;99.90
10968;DHT22;5536;49.602;10.980;2023-06-14T13:55:06;29.30;99.90
10968;DHT22;5536;49.602;10.980;2023-06-14T13:57:33;29.20;99.90
10968;DHT22;5536;49.602;10.980;2023-06-14T14:00:00;29.00;99.90
10968;DHT22;5536;49.602;10.980;2023-06-14T14:02:28;29.50;99.90
10968;DHT22;5536;49.602;10.980;2023-06-14T14:04:55;29.20;99.90
10968;DHT22;5536;49.602;10.980;2023-06-14T14:07:24;29.30;99.90
10968;DHT22;5536;49.602;10.980;2023-06-14T14:09:51;29.90;99.90
10968;DHT22;5536;49.602;10.980;2023-06-14T14:12:19;29.30;99.90
10968;DHT22;5536;49.602;10.980;2023-06-14T14:14:46;28.20;99.90
10968;DHT22;5536;49.602;10.980;2023-06-14T14:17:13;27.00;99.90
10968;DHT22;5536;49.602;10.980;2023-06-14T14:19:40;26.40;99.90
10968;DHT22;5536;49.602;10.980;2023-06-14T14:22:07;25.80;99.90
10968;DHT22;5536;49.602;10.980;2023-06-14T14:24:35;25.40;99.90
10968;DHT22;5536;49.602;10.980;2023-06-14T14:27:02;25.20;99.90
10968;DHT22;5536;49.602;10.980;2023-06-14T14:29:29;25.10;99.90
10968;DHT22;5536;49.602;10.980;2023-06-14T14:31:56;24.90;99.90
10968;DHT22;5536;49.602;10.980;2023-06-14T14:34:24;24.80;99.90
10968;DHT22;5536;49.602;10.980;2023-06-14T14:36:51;24.70;99.90
10968;DHT22;5536;49.602;10.980;2023-06-14T14:39:18;24.50;99.90
10968;DHT22;5536;49.602;10.980;2023-06-14T14:41:46;24.50;99.90
10968;DHT22;5536;49.602;10.980;2023-06-14T14:44:13;24.50;99.90
10968;DHT22;5536;49.602;10.980;2023-06-14T14:46:40;24.60;99.90
10968;DHT22;5536;49.602;10.980;2023-06-14T14:49:08;24.80;99.90
10968;DHT22;5536;49.602;10.980;2023-06-14T14:51:35;25.00;99.90
10968;DHT22;5536;49.602;10.980;2023-06-14T14:54:04;25.30;99.90
10968;DHT22;5536;49.602;10.980;2023-06-14T14:56:31;26.30;99.90
10968;DHT22;5536;49.602;10.980;2023-06-14T14:58:59;27.70;99.90
10968;DHT22;5536;49.602;10.980;2023-06-14T15:01:26;28.40;99.90
10968;DHT22;5536;49.602;10.980;2023-06-14T15:03:53;29.30;99.90
10968;DHT22;5536;49.602;10.980;2023-06-14T15:06:20;30.00;99.90
10968;DHT22;5536;49.602;10.980;2023-06-14T15:08:47;29.60;99.90
10968;DHT22;5536;49.602;10.980;2023-06-14T15:11:14;29.90;99.90
10968;DHT22;5536;49.602;10.980;2023-06-14T15:13:41;30.10;99.90
10968;DHT22;5536;49.602;10.980;2023-06-14T15:16:10;31.30;99.90
10968;DHT22;5536;49.602;10.980;2023-06-14T15:18:37;31.30;99.90
10968;DHT22;5536;49.602;10.980;2023-06-14T15:21:03;30.40;99.90
10968;DHT22;5536;49.602;10.980;2023-06-14T15:24:40;30.20;99.90
10968;DHT22;5536;49.602;10.980;2023-06-14T15:27:12;28.90;99.90
10968;DHT22;5536;49.602;10.980;2023-06-14T15:29:42;28.70;99.90
10968;DHT22;5536;49.602;10.980;2023-06-14T15:32:09;28.20;99.90
10968;DHT22;5536;49.602;10.980;2023-06-14T15:34:37;28.50;99.90
10968;DHT22;5536;49.602;10.980;2023-06-14T15:37:05;27.80;99.90
10968;DHT22;5536;49.602;10.980;2023-06-14T15:39:37;27.40;99.90
10968;DHT22;5536;49.602;10.980;2023-06-14T15:42:05;26.90;99.90